Rechercher aéroport 
image banner adimage banner adimage banner ad
image banner ad

2CL1 - Brownsville

Situé à Brownsville, United States

ICAO - 2CL1, IATA -

Données fournies par Airmate  

Information générale

Coordonnées: N39°27'19" W121°17'30"
Élévation : 2120 feet MSL.
Variation magnétique : 16° East
Voir autres Aéroports à California

Données opérationnelles

Special qualification required
Heure actuelle UTC:
Heure actuelle locale:
Météo à : KOVE - Oroville Muni ( 29 km )
METAR: KOVE 251153Z AUTO 10004KT 10SM CLR 23/09 A2988 RMK AO2 SLP118 T02330094 10300 20233 53007
Voir NOTAMs / SUP AIP / TFR affectant cet aéroport [VIEW]
Fréquences de communication: [VIEW]

Pistes:

Identifiant RWYQFULongueur (ft)Largeur (ft)SurfaceLDA (ft)
06232620OTHER
24232620OTHER

Coordonnées de l'aéroport

Adresse: Brownsville United States

Vue satellite de 2CL1